sensor_id;sensor_type;location;lat;lon;timestamp;P1;durP1;ratioP1;P2;durP2;ratioP2
52686;SDS011;38584;49.426;8.396;2024-03-06T00:00:12;18.10;;;7.95;;
52686;SDS011;38584;49.426;8.396;2024-03-06T00:02:38;18.85;;;7.78;;
52686;SDS011;38584;49.426;8.396;2024-03-06T00:05:04;19.70;;;7.47;;
52686;SDS011;38584;49.426;8.396;2024-03-06T00:07:32;16.08;;;7.43;;
52686;SDS011;38584;49.426;8.396;2024-03-06T00:09:57;17.17;;;7.28;;
52686;SDS011;38584;49.426;8.396;2024-03-06T00:12:23;17.13;;;7.47;;
52686;SDS011;38584;49.426;8.396;2024-03-06T00:14:48;19.13;;;7.93;;
52686;SDS011;38584;49.426;8.396;2024-03-06T00:17:13;17.50;;;8.00;;
52686;SDS011;38584;49.426;8.396;2024-03-06T00:19:39;20.33;;;9.30;;
52686;SDS011;38584;49.426;8.396;2024-03-06T00:22:04;16.48;;;8.13;;
52686;SDS011;38584;49.426;8.396;2024-03-06T00:24:29;17.15;;;8.10;;
52686;SDS011;38584;49.426;8.396;2024-03-06T00:26:55;19.27;;;8.68;;
52686;SDS011;38584;49.426;8.396;2024-03-06T00:29:20;21.17;;;8.68;;
52686;SDS011;38584;49.426;8.396;2024-03-06T00:31:57;18.15;;;8.10;;
52686;SDS011;38584;49.426;8.396;2024-03-06T00:34:23;15.88;;;8.23;;
52686;SDS011;38584;49.426;8.396;2024-03-06T00:36:49;18.17;;;8.13;;
52686;SDS011;38584;49.426;8.396;2024-03-06T00:39:20;18.75;;;8.82;;
52686;SDS011;38584;49.426;8.396;2024-03-06T00:41:46;17.63;;;7.88;;
52686;SDS011;38584;49.426;8.396;2024-03-06T00:44:11;17.77;;;7.72;;
52686;SDS011;38584;49.426;8.396;2024-03-06T00:46:36;19.17;;;8.40;;
52686;SDS011;38584;49.426;8.396;2024-03-06T00:49:02;16.70;;;7.82;;
52686;SDS011;38584;49.426;8.396;2024-03-06T00:51:27;17.52;;;8.00;;
52686;SDS011;38584;49.426;8.396;2024-03-06T00:53:52;20.10;;;7.88;;
52686;SDS011;38584;49.426;8.396;2024-03-06T00:56:18;18.90;;;8.85;;
52686;SDS011;38584;49.426;8.396;2024-03-06T00:58:43;18.98;;;7.80;;
52686;SDS011;38584;49.426;8.396;2024-03-06T01:01:08;16.90;;;7.63;;
52686;SDS011;38584;49.426;8.396;2024-03-06T01:03:34;20.27;;;8.70;;
52686;SDS011;38584;49.426;8.396;2024-03-06T01:05:59;17.00;;;7.88;;
52686;SDS011;38584;49.426;8.396;2024-03-06T01:08:25;18.58;;;8.02;;
52686;SDS011;38584;49.426;8.396;2024-03-06T01:10:50;17.92;;;7.90;;
52686;SDS011;38584;49.426;8.396;2024-03-06T01:13:19;19.02;;;8.27;;
52686;SDS011;38584;49.426;8.396;2024-03-06T01:15:48;16.83;;;8.20;;
52686;SDS011;38584;49.426;8.396;2024-03-06T01:18:13;17.63;;;8.48;;
52686;SDS011;38584;49.426;8.396;2024-03-06T01:20:39;15.57;;;7.60;;
52686;SDS011;38584;49.426;8.396;2024-03-06T01:23:05;17.17;;;8.27;;
52686;SDS011;38584;49.426;8.396;2024-03-06T01:25:30;18.70;;;8.80;;
52686;SDS011;38584;49.426;8.396;2024-03-06T01:27:55;18.83;;;8.32;;
52686;SDS011;38584;49.426;8.396;2024-03-06T01:30:21;17.38;;;8.45;;
52686;SDS011;38584;49.426;8.396;2024-03-06T01:32:52;16.70;;;7.30;;
52686;SDS011;38584;49.426;8.396;2024-03-06T01:35:18;17.70;;;8.05;;
52686;SDS011;38584;49.426;8.396;2024-03-06T01:37:43;20.77;;;8.55;;
52686;SDS011;38584;49.426;8.396;2024-03-06T01:40:09;19.13;;;7.78;;
52686;SDS011;38584;49.426;8.396;2024-03-06T01:42:35;17.27;;;8.20;;
52686;SDS011;38584;49.426;8.396;2024-03-06T01:45:01;19.92;;;8.10;;
52686;SDS011;38584;49.426;8.396;2024-03-06T01:47:27;19.60;;;8.20;;
52686;SDS011;38584;49.426;8.396;2024-03-06T01:49:55;17.08;;;8.25;;
52686;SDS011;38584;49.426;8.396;2024-03-06T01:52:21;18.05;;;8.38;;
52686;SDS011;38584;49.426;8.396;2024-03-06T01:54:47;17.15;;;8.05;;
52686;SDS011;38584;49.426;8.396;2024-03-06T01:57:13;19.70;;;7.78;;
52686;SDS011;38584;49.426;8.396;2024-03-06T01:59:39;17.63;;;7.85;;
52686;SDS011;38584;49.426;8.396;2024-03-06T02:02:07;19.52;;;8.48;;
52686;SDS011;38584;49.426;8.396;2024-03-06T02:04:36;20.70;;;8.38;;
52686;SDS011;38584;49.426;8.396;2024-03-06T02:07:07;19.25;;;8.00;;
52686;SDS011;38584;49.426;8.396;2024-03-06T02:09:33;23.05;;;8.23;;
52686;SDS011;38584;49.426;8.396;2024-03-06T02:11:58;21.33;;;9.05;;
52686;SDS011;38584;49.426;8.396;2024-03-06T02:14:25;15.30;;;7.53;;
52686;SDS011;38584;49.426;8.396;2024-03-06T02:16:52;18.30;;;8.02;;
52686;SDS011;38584;49.426;8.396;2024-03-06T02:19:17;20.83;;;7.90;;
52686;SDS011;38584;49.426;8.396;2024-03-06T02:21:45;18.27;;;8.02;;
52686;SDS011;38584;49.426;8.396;2024-03-06T02:24:11;18.58;;;8.82;;
52686;SDS011;38584;49.426;8.396;2024-03-06T02:26:38;16.95;;;7.70;;
52686;SDS011;38584;49.426;8.396;2024-03-06T02:29:03;18.42;;;7.93;;
52686;SDS011;38584;49.426;8.396;2024-03-06T02:31:34;18.10;;;7.85;;
52686;SDS011;38584;49.426;8.396;2024-03-06T02:34:00;19.85;;;8.85;;
52686;SDS011;38584;49.426;8.396;2024-03-06T02:36:35;16.50;;;8.13;;
52686;SDS011;38584;49.426;8.396;2024-03-06T02:39:01;24.23;;;8.90;;
52686;SDS011;38584;49.426;8.396;2024-03-06T02:41:26;18.92;;;8.23;;
52686;SDS011;38584;49.426;8.396;2024-03-06T02:43:52;22.35;;;8.50;;
52686;SDS011;38584;49.426;8.396;2024-03-06T02:46:17;20.33;;;8.70;;
52686;SDS011;38584;49.426;8.396;2024-03-06T02:48:42;19.27;;;8.05;;
52686;SDS011;38584;49.426;8.396;2024-03-06T02:51:08;20.33;;;8.75;;
52686;SDS011;38584;49.426;8.396;2024-03-06T02:53:33;17.70;;;7.78;;
52686;SDS011;38584;49.426;8.396;2024-03-06T02:55:58;20.63;;;8.60;;
52686;SDS011;38584;49.426;8.396;2024-03-06T02:58:24;20.60;;;9.30;;
52686;SDS011;38584;49.426;8.396;2024-03-06T03:00:49;21.02;;;9.73;;
52686;SDS011;38584;49.426;8.396;2024-03-06T03:03:14;20.88;;;9.85;;
52686;SDS011;38584;49.426;8.396;2024-03-06T03:05:40;16.83;;;9.07;;
52686;SDS011;38584;49.426;8.396;2024-03-06T03:08:08;17.63;;;9.35;;
52686;SDS011;38584;49.426;8.396;2024-03-06T03:10:37;21.15;;;9.20;;
52686;SDS011;38584;49.426;8.396;2024-03-06T03:13:02;18.63;;;9.05;;
52686;SDS011;38584;49.426;8.396;2024-03-06T03:15:33;19.35;;;8.48;;
52686;SDS011;38584;49.426;8.396;2024-03-06T03:17:58;19.73;;;8.77;;
52686;SDS011;38584;49.426;8.396;2024-03-06T03:20:23;16.40;;;8.27;;
52686;SDS011;38584;49.426;8.396;2024-03-06T03:22:52;17.83;;;7.55;;
52686;SDS011;38584;49.426;8.396;2024-03-06T03:25:17;19.55;;;8.88;;
52686;SDS011;38584;49.426;8.396;2024-03-06T03:27:46;17.77;;;8.00;;
52686;SDS011;38584;49.426;8.396;2024-03-06T03:30:12;21.02;;;8.05;;
52686;SDS011;38584;49.426;8.396;2024-03-06T03:32:40;17.83;;;8.13;;
52686;SDS011;38584;49.426;8.396;2024-03-06T03:35:06;17.08;;;6.90;;
52686;SDS011;38584;49.426;8.396;2024-03-06T03:37:32;18.40;;;7.80;;
52686;SDS011;38584;49.426;8.396;2024-03-06T03:39:58;15.23;;;7.72;;
52686;SDS011;38584;49.426;8.396;2024-03-06T03:42:23;15.20;;;7.70;;
52686;SDS011;38584;49.426;8.396;2024-03-06T03:44:48;16.40;;;7.30;;
52686;SDS011;38584;49.426;8.396;2024-03-06T03:47:17;17.85;;;7.40;;
52686;SDS011;38584;49.426;8.396;2024-03-06T03:49:43;16.65;;;7.32;;
52686;SDS011;38584;49.426;8.396;2024-03-06T03:52:08;15.88;;;8.25;;
52686;SDS011;38584;49.426;8.396;2024-03-06T03:54:33;17.13;;;7.45;;
52686;SDS011;38584;49.426;8.396;2024-03-06T03:57:00;14.27;;;7.55;;
52686;SDS011;38584;49.426;8.396;2024-03-06T03:59:25;16.77;;;7.38;;
52686;SDS011;38584;49.426;8.396;2024-03-06T04:01:50;15.77;;;6.95;;
52686;SDS011;38584;49.426;8.396;2024-03-06T04:04:16;14.93;;;7.63;;
52686;SDS011;38584;49.426;8.396;2024-03-06T04:06:41;16.25;;;8.20;;
52686;SDS011;38584;49.426;8.396;2024-03-06T04:09:06;15.93;;;7.78;;
52686;SDS011;38584;49.426;8.396;2024-03-06T04:11:53;21.38;;;8.77;;
52686;SDS011;38584;49.426;8.396;2024-03-06T04:14:18;18.17;;;8.73;;
52686;SDS011;38584;49.426;8.396;2024-03-06T04:16:45;17.77;;;8.40;;
52686;SDS011;38584;49.426;8.396;2024-03-06T04:19:10;19.42;;;9.35;;
52686;SDS011;38584;49.426;8.396;2024-03-06T04:21:40;18.40;;;8.75;;
52686;SDS011;38584;49.426;8.396;2024-03-06T04:24:10;18.63;;;8.20;;
52686;SDS011;38584;49.426;8.396;2024-03-06T04:26:35;20.23;;;9.05;;
52686;SDS011;38584;49.426;8.396;2024-03-06T04:29:01;21.08;;;8.43;;
52686;SDS011;38584;49.426;8.396;2024-03-06T04:31:27;18.50;;;9.32;;
52686;SDS011;38584;49.426;8.396;2024-03-06T04:33:53;18.70;;;8.25;;
52686;SDS011;38584;49.426;8.396;2024-03-06T04:36:21;19.85;;;8.50;;
52686;SDS011;38584;49.426;8.396;2024-03-06T04:38:46;20.05;;;9.18;;
52686;SDS011;38584;49.426;8.396;2024-03-06T04:41:12;18.73;;;9.00;;
52686;SDS011;38584;49.426;8.396;2024-03-06T04:43:40;23.95;;;9.02;;
52686;SDS011;38584;49.426;8.396;2024-03-06T04:46:06;19.20;;;8.80;;
52686;SDS011;38584;49.426;8.396;2024-03-06T04:48:37;17.45;;;9.00;;
52686;SDS011;38584;49.426;8.396;2024-03-06T04:51:03;17.98;;;9.07;;
52686;SDS011;38584;49.426;8.396;2024-03-06T04:53:28;19.15;;;8.55;;
52686;SDS011;38584;49.426;8.396;2024-03-06T04:55:53;21.00;;;9.35;;
52686;SDS011;38584;49.426;8.396;2024-03-06T04:58:19;18.20;;;8.57;;
52686;SDS011;38584;49.426;8.396;2024-03-06T05:00:45;20.80;;;8.90;;
52686;SDS011;38584;49.426;8.396;2024-03-06T05:03:10;16.33;;;8.60;;
52686;SDS011;38584;49.426;8.396;2024-03-06T05:05:35;17.55;;;8.52;;
52686;SDS011;38584;49.426;8.396;2024-03-06T05:08:01;20.48;;;9.50;;
52686;SDS011;38584;49.426;8.396;2024-03-06T05:10:26;22.95;;;9.23;;
52686;SDS011;38584;49.426;8.396;2024-03-06T05:12:52;17.83;;;9.13;;
52686;SDS011;38584;49.426;8.396;2024-03-06T05:15:17;17.10;;;8.43;;
52686;SDS011;38584;49.426;8.396;2024-03-06T05:17:44;20.73;;;8.32;;
52686;SDS011;38584;49.426;8.396;2024-03-06T05:20:10;16.98;;;8.48;;
52686;SDS011;38584;49.426;8.396;2024-03-06T05:22:35;17.08;;;8.20;;
52686;SDS011;38584;49.426;8.396;2024-03-06T05:25:01;21.60;;;9.32;;
52686;SDS011;38584;49.426;8.396;2024-03-06T05:27:26;17.05;;;8.27;;
52686;SDS011;38584;49.426;8.396;2024-03-06T05:29:52;20.10;;;8.30;;
52686;SDS011;38584;49.426;8.396;2024-03-06T05:32:17;17.20;;;8.10;;
52686;SDS011;38584;49.426;8.396;2024-03-06T05:34:42;17.05;;;8.00;;
52686;SDS011;38584;49.426;8.396;2024-03-06T05:37:08;18.38;;;7.85;;
52686;SDS011;38584;49.426;8.396;2024-03-06T05:39:34;18.00;;;8.45;;
52686;SDS011;38584;49.426;8.396;2024-03-06T05:41:59;19.15;;;8.75;;
52686;SDS011;38584;49.426;8.396;2024-03-06T05:44:27;20.00;;;8.13;;
52686;SDS011;38584;49.426;8.396;2024-03-06T05:46:53;19.20;;;7.95;;
52686;SDS011;38584;49.426;8.396;2024-03-06T05:49:18;18.15;;;7.72;;
52686;SDS011;38584;49.426;8.396;2024-03-06T05:51:43;18.42;;;7.80;;
52686;SDS011;38584;49.426;8.396;2024-03-06T05:54:08;17.65;;;8.35;;
52686;SDS011;38584;49.426;8.396;2024-03-06T05:56:34;16.40;;;7.93;;
52686;SDS011;38584;49.426;8.396;2024-03-06T05:59:00;15.68;;;7.85;;
52686;SDS011;38584;49.426;8.396;2024-03-06T06:01:29;18.30;;;8.30;;
52686;SDS011;38584;49.426;8.396;2024-03-06T06:03:55;18.77;;;7.60;;
52686;SDS011;38584;49.426;8.396;2024-03-06T06:06:20;16.55;;;8.88;;
52686;SDS011;38584;49.426;8.396;2024-03-06T06:08:46;18.38;;;9.23;;
52686;SDS011;38584;49.426;8.396;2024-03-06T06:11:11;22.92;;;9.85;;
52686;SDS011;38584;49.426;8.396;2024-03-06T06:13:37;19.25;;;8.27;;
52686;SDS011;38584;49.426;8.396;2024-03-06T06:16:06;17.67;;;8.10;;
52686;SDS011;38584;49.426;8.396;2024-03-06T06:18:31;19.77;;;8.35;;
52686;SDS011;38584;49.426;8.396;2024-03-06T06:20:57;18.13;;;8.55;;
52686;SDS011;38584;49.426;8.396;2024-03-06T06:23:23;17.55;;;8.52;;
52686;SDS011;38584;49.426;8.396;2024-03-06T06:25:48;19.23;;;8.85;;
52686;SDS011;38584;49.426;8.396;2024-03-06T06:28:14;24.48;;;9.38;;
52686;SDS011;38584;49.426;8.396;2024-03-06T06:30:39;17.95;;;9.43;;
52686;SDS011;38584;49.426;8.396;2024-03-06T06:33:04;24.42;;;10.32;;
52686;SDS011;38584;49.426;8.396;2024-03-06T06:35:30;22.52;;;10.77;;
52686;SDS011;38584;49.426;8.396;2024-03-06T06:37:55;23.40;;;11.30;;
52686;SDS011;38584;49.426;8.396;2024-03-06T06:40:21;21.27;;;10.05;;
52686;SDS011;38584;49.426;8.396;2024-03-06T06:42:47;19.70;;;10.40;;
52686;SDS011;38584;49.426;8.396;2024-03-06T06:45:16;31.33;;;9.07;;
52686;SDS011;38584;49.426;8.396;2024-03-06T06:47:43;18.35;;;8.60;;
52686;SDS011;38584;49.426;8.396;2024-03-06T06:50:09;21.30;;;9.45;;
52686;SDS011;38584;49.426;8.396;2024-03-06T06:52:34;18.88;;;9.00;;
52686;SDS011;38584;49.426;8.396;2024-03-06T06:55:00;17.88;;;8.00;;
52686;SDS011;38584;49.426;8.396;2024-03-06T06:57:26;17.95;;;7.30;;
52686;SDS011;38584;49.426;8.396;2024-03-06T06:59:51;15.25;;;7.22;;
52686;SDS011;38584;49.426;8.396;2024-03-06T07:02:17;16.27;;;7.38;;
52686;SDS011;38584;49.426;8.396;2024-03-06T07:04:42;18.42;;;7.10;;
52686;SDS011;38584;49.426;8.396;2024-03-06T07:07:07;18.17;;;7.05;;
52686;SDS011;38584;49.426;8.396;2024-03-06T07:09:32;16.60;;;7.05;;
52686;SDS011;38584;49.426;8.396;2024-03-06T07:11:58;16.55;;;7.10;;
52686;SDS011;38584;49.426;8.396;2024-03-06T07:14:24;14.35;;;6.30;;
52686;SDS011;38584;49.426;8.396;2024-03-06T07:16:49;20.23;;;7.60;;
52686;SDS011;38584;49.426;8.396;2024-03-06T07:19:15;17.33;;;7.15;;
52686;SDS011;38584;49.426;8.396;2024-03-06T07:21:41;15.63;;;6.45;;
52686;SDS011;38584;49.426;8.396;2024-03-06T07:24:07;16.90;;;6.65;;
52686;SDS011;38584;49.426;8.396;2024-03-06T07:26:32;18.48;;;6.85;;
52686;SDS011;38584;49.426;8.396;2024-03-06T07:28:58;13.70;;;6.15;;
52686;SDS011;38584;49.426;8.396;2024-03-06T07:31:23;13.65;;;6.65;;
52686;SDS011;38584;49.426;8.396;2024-03-06T07:33:49;15.38;;;6.28;;
52686;SDS011;38584;49.426;8.396;2024-03-06T07:36:14;18.95;;;6.45;;
52686;SDS011;38584;49.426;8.396;2024-03-06T07:38:44;17.40;;;6.22;;
52686;SDS011;38584;49.426;8.396;2024-03-06T07:41:09;17.15;;;7.22;;
52686;SDS011;38584;49.426;8.396;2024-03-06T07:43:35;17.77;;;7.45;;
52686;SDS011;38584;49.426;8.396;2024-03-06T07:46:01;17.50;;;7.28;;
52686;SDS011;38584;49.426;8.396;2024-03-06T07:48:26;19.83;;;7.13;;
52686;SDS011;38584;49.426;8.396;2024-03-06T07:50:51;18.58;;;7.15;;
52686;SDS011;38584;49.426;8.396;2024-03-06T07:53:23;15.57;;;7.07;;
52686;SDS011;38584;49.426;8.396;2024-03-06T07:55:48;15.38;;;6.38;;
52686;SDS011;38584;49.426;8.396;2024-03-06T07:58:13;15.77;;;6.03;;
52686;SDS011;38584;49.426;8.396;2024-03-06T08:00:47;13.90;;;5.88;;
52686;SDS011;38584;49.426;8.396;2024-03-06T08:03:12;18.10;;;6.60;;
52686;SDS011;38584;49.426;8.396;2024-03-06T08:05:38;14.57;;;5.38;;
52686;SDS011;38584;49.426;8.396;2024-03-06T08:08:06;13.90;;;5.07;;
52686;SDS011;38584;49.426;8.396;2024-03-06T08:10:32;14.50;;;5.32;;
52686;SDS011;38584;49.426;8.396;2024-03-06T08:12:58;17.65;;;5.88;;
52686;SDS011;38584;49.426;8.396;2024-03-06T08:15:24;18.83;;;5.60;;
52686;SDS011;38584;49.426;8.396;2024-03-06T08:17:49;15.68;;;5.13;;
52686;SDS011;38584;49.426;8.396;2024-03-06T08:20:16;16.33;;;5.63;;
52686;SDS011;38584;49.426;8.396;2024-03-06T08:22:42;13.00;;;5.43;;
52686;SDS011;38584;49.426;8.396;2024-03-06T08:25:08;13.27;;;5.28;;
52686;SDS011;38584;49.426;8.396;2024-03-06T08:27:35;12.00;;;4.65;;
52686;SDS011;38584;49.426;8.396;2024-03-06T08:30:05;13.88;;;5.32;;
52686;SDS011;38584;49.426;8.396;2024-03-06T08:32:40;15.20;;;5.50;;
52686;SDS011;38584;49.426;8.396;2024-03-06T08:35:10;16.98;;;5.35;;
52686;SDS011;38584;49.426;8.396;2024-03-06T08:37:39;14.63;;;5.22;;
52686;SDS011;38584;49.426;8.396;2024-03-06T08:40:06;14.40;;;5.43;;
52686;SDS011;38584;49.426;8.396;2024-03-06T08:42:42;13.68;;;5.45;;
52686;SDS011;38584;49.426;8.396;2024-03-06T08:45:08;12.73;;;4.82;;
52686;SDS011;38584;49.426;8.396;2024-03-06T08:47:34;12.80;;;4.90;;
52686;SDS011;38584;49.426;8.396;2024-03-06T08:50:00;13.25;;;5.22;;
52686;SDS011;38584;49.426;8.396;2024-03-06T08:52:27;18.05;;;5.78;;
52686;SDS011;38584;49.426;8.396;2024-03-06T08:54:53;14.98;;;5.45;;
52686;SDS011;38584;49.426;8.396;2024-03-06T08:57:21;13.85;;;5.35;;
52686;SDS011;38584;49.426;8.396;2024-03-06T08:59:47;12.75;;;5.25;;
52686;SDS011;38584;49.426;8.396;2024-03-06T09:02:13;14.63;;;5.32;;
52686;SDS011;38584;49.426;8.396;2024-03-06T09:04:46;13.20;;;5.30;;
52686;SDS011;38584;49.426;8.396;2024-03-06T09:07:15;16.25;;;5.35;;
52686;SDS011;38584;49.426;8.396;2024-03-06T09:09:40;15.55;;;5.18;;
52686;SDS011;38584;49.426;8.396;2024-03-06T09:12:06;11.80;;;4.18;;
52686;SDS011;38584;49.426;8.396;2024-03-06T09:14:35;10.95;;;4.15;;
52686;SDS011;38584;49.426;8.396;2024-03-06T09:17:04;12.00;;;3.80;;
52686;SDS011;38584;49.426;8.396;2024-03-06T09:19:30;10.52;;;3.55;;
52686;SDS011;38584;49.426;8.396;2024-03-06T09:21:55;11.18;;;3.90;;
52686;SDS011;38584;49.426;8.396;2024-03-06T09:24:21;12.02;;;4.35;;
52686;SDS011;38584;49.426;8.396;2024-03-06T09:26:51;13.93;;;4.55;;
52686;SDS011;38584;49.426;8.396;2024-03-06T09:29:16;11.05;;;4.50;;
52686;SDS011;38584;49.426;8.396;2024-03-06T09:31:42;16.98;;;4.90;;
52686;SDS011;38584;49.426;8.396;2024-03-06T09:34:07;14.88;;;4.60;;
52686;SDS011;38584;49.426;8.396;2024-03-06T09:36:36;12.55;;;4.53;;
52686;SDS011;38584;49.426;8.396;2024-03-06T09:39:01;10.77;;;5.03;;
52686;SDS011;38584;49.426;8.396;2024-03-06T09:41:29;15.57;;;5.30;;
52686;SDS011;38584;49.426;8.396;2024-03-06T09:43:55;14.15;;;5.03;;
52686;SDS011;38584;49.426;8.396;2024-03-06T09:46:20;16.58;;;4.78;;
52686;SDS011;38584;49.426;8.396;2024-03-06T09:48:47;14.52;;;5.15;;
52686;SDS011;38584;49.426;8.396;2024-03-06T09:51:13;10.40;;;4.35;;
52686;SDS011;38584;49.426;8.396;2024-03-06T09:53:39;9.43;;;3.95;;
52686;SDS011;38584;49.426;8.396;2024-03-06T09:56:05;14.32;;;4.97;;
52686;SDS011;38584;49.426;8.396;2024-03-06T09:58:36;12.75;;;4.88;;
52686;SDS011;38584;49.426;8.396;2024-03-06T10:01:01;16.80;;;5.25;;
52686;SDS011;38584;49.426;8.396;2024-03-06T10:03:36;16.30;;;4.97;;
52686;SDS011;38584;49.426;8.396;2024-03-06T10:06:01;14.60;;;5.13;;
52686;SDS011;38584;49.426;8.396;2024-03-06T10:08:30;19.42;;;5.25;;
52686;SDS011;38584;49.426;8.396;2024-03-06T10:10:57;14.15;;;4.90;;
52686;SDS011;38584;49.426;8.396;2024-03-06T10:13:26;15.60;;;5.10;;
52686;SDS011;38584;49.426;8.396;2024-03-06T10:15:55;14.73;;;5.50;;
52686;SDS011;38584;49.426;8.396;2024-03-06T10:18:28;16.10;;;5.65;;
52686;SDS011;38584;49.426;8.396;2024-03-06T10:20:55;15.50;;;5.72;;
52686;SDS011;38584;49.426;8.396;2024-03-06T10:23:21;16.95;;;5.57;;
52686;SDS011;38584;49.426;8.396;2024-03-06T10:25:46;13.48;;;5.30;;
52686;SDS011;38584;49.426;8.396;2024-03-06T10:28:19;15.98;;;5.57;;
52686;SDS011;38584;49.426;8.396;2024-03-06T10:30:45;12.45;;;5.38;;
52686;SDS011;38584;49.426;8.396;2024-03-06T10:33:18;15.45;;;5.80;;
52686;SDS011;38584;49.426;8.396;2024-03-06T10:35:44;12.65;;;5.30;;
52686;SDS011;38584;49.426;8.396;2024-03-06T10:38:14;14.35;;;5.18;;
52686;SDS011;38584;49.426;8.396;2024-03-06T10:40:41;13.65;;;5.85;;
52686;SDS011;38584;49.426;8.396;2024-03-06T10:43:07;16.60;;;6.10;;
52686;SDS011;38584;49.426;8.396;2024-03-06T10:48:14;13.80;;;5.97;;
52686;SDS011;38584;49.426;8.396;2024-03-06T10:50:41;17.35;;;7.15;;
52686;SDS011;38584;49.426;8.396;2024-03-06T10:53:11;17.58;;;6.95;;
52686;SDS011;38584;49.426;8.396;2024-03-06T10:55:37;17.00;;;7.10;;
52686;SDS011;38584;49.426;8.396;2024-03-06T10:58:05;16.42;;;7.50;;
52686;SDS011;38584;49.426;8.396;2024-03-06T11:00:40;20.98;;;10.35;;
52686;SDS011;38584;49.426;8.396;2024-03-06T11:03:07;18.02;;;9.85;;
52686;SDS011;38584;49.426;8.396;2024-03-06T11:05:37;18.65;;;9.10;;
52686;SDS011;38584;49.426;8.396;2024-03-06T11:08:05;21.10;;;11.02;;
52686;SDS011;38584;49.426;8.396;2024-03-06T11:10:33;26.63;;;12.15;;
52686;SDS011;38584;49.426;8.396;2024-03-06T11:12:59;22.05;;;12.25;;
52686;SDS011;38584;49.426;8.396;2024-03-06T11:15:29;23.58;;;13.07;;
52686;SDS011;38584;49.426;8.396;2024-03-06T11:17:55;22.90;;;12.80;;
52686;SDS011;38584;49.426;8.396;2024-03-06T11:20:20;23.13;;;11.75;;
52686;SDS011;38584;49.426;8.396;2024-03-06T11:31:03;20.85;;;11.55;;
52686;SDS011;38584;49.426;8.396;2024-03-06T11:33:42;21.25;;;12.32;;
52686;SDS011;38584;49.426;8.396;2024-03-06T11:36:19;22.42;;;12.32;;
52686;SDS011;38584;49.426;8.396;2024-03-06T11:39:02;22.52;;;12.38;;
52686;SDS011;38584;49.426;8.396;2024-03-06T11:44:18;21.13;;;11.05;;
52686;SDS011;38584;49.426;8.396;2024-03-06T11:46:49;24.00;;;12.02;;
52686;SDS011;38584;49.426;8.396;2024-03-06T11:49:18;21.75;;;11.50;;
52686;SDS011;38584;49.426;8.396;2024-03-06T11:51:49;24.92;;;12.60;;
52686;SDS011;38584;49.426;8.396;2024-03-06T11:54:22;21.77;;;12.27;;
52686;SDS011;38584;49.426;8.396;2024-03-06T11:56:52;22.27;;;12.27;;
52686;SDS011;38584;49.426;8.396;2024-03-06T11:59:22;24.67;;;12.10;;
52686;SDS011;38584;49.426;8.396;2024-03-06T12:01:52;24.02;;;13.45;;
52686;SDS011;38584;49.426;8.396;2024-03-06T12:04:18;23.77;;;12.93;;
52686;SDS011;38584;49.426;8.396;2024-03-06T12:06:45;22.73;;;12.68;;
52686;SDS011;38584;49.426;8.396;2024-03-06T12:09:10;23.00;;;12.55;;
52686;SDS011;38584;49.426;8.396;2024-03-06T12:11:36;24.08;;;12.65;;
52686;SDS011;38584;49.426;8.396;2024-03-06T12:14:02;20.92;;;11.52;;
52686;SDS011;38584;49.426;8.396;2024-03-06T12:16:27;25.55;;;13.77;;
52686;SDS011;38584;49.426;8.396;2024-03-06T12:18:59;22.48;;;12.68;;
52686;SDS011;38584;49.426;8.396;2024-03-06T12:21:28;22.92;;;12.75;;
52686;SDS011;38584;49.426;8.396;2024-03-06T12:24:05;21.10;;;13.10;;
52686;SDS011;38584;49.426;8.396;2024-03-06T12:26:31;20.63;;;12.23;;
52686;SDS011;38584;49.426;8.396;2024-03-06T12:31:35;21.60;;;12.52;;
52686;SDS011;38584;49.426;8.396;2024-03-06T12:34:03;20.30;;;12.30;;
52686;SDS011;38584;49.426;8.396;2024-03-06T12:36:29;20.33;;;11.38;;
52686;SDS011;38584;49.426;8.396;2024-03-06T12:39:04;21.35;;;11.68;;
52686;SDS011;38584;49.426;8.396;2024-03-06T12:41:37;22.27;;;12.48;;
52686;SDS011;38584;49.426;8.396;2024-03-06T12:44:06;19.90;;;11.77;;
52686;SDS011;38584;49.426;8.396;2024-03-06T12:46:34;20.48;;;11.90;;
52686;SDS011;38584;49.426;8.396;2024-03-06T12:48:59;22.05;;;12.30;;
52686;SDS011;38584;49.426;8.396;2024-03-06T12:51:30;20.55;;;12.20;;
52686;SDS011;38584;49.426;8.396;2024-03-06T12:53:57;19.80;;;11.60;;
52686;SDS011;38584;49.426;8.396;2024-03-06T12:56:23;19.70;;;11.15;;
52686;SDS011;38584;49.426;8.396;2024-03-06T12:58:50;18.42;;;9.77;;
52686;SDS011;38584;49.426;8.396;2024-03-06T13:01:16;20.15;;;11.02;;
52686;SDS011;38584;49.426;8.396;2024-03-06T13:03:41;22.55;;;11.32;;
52686;SDS011;38584;49.426;8.396;2024-03-06T13:06:09;21.40;;;10.93;;
52686;SDS011;38584;49.426;8.396;2024-03-06T13:08:35;20.38;;;11.38;;
52686;SDS011;38584;49.426;8.396;2024-03-06T13:11:01;20.10;;;11.50;;
52686;SDS011;38584;49.426;8.396;2024-03-06T13:13:26;26.55;;;11.82;;
52686;SDS011;38584;49.426;8.396;2024-03-06T13:15:54;21.08;;;12.60;;
52686;SDS011;38584;49.426;8.396;2024-03-06T13:18:19;22.60;;;12.60;;
52686;SDS011;38584;49.426;8.396;2024-03-06T13:20:45;24.75;;;11.75;;
52686;SDS011;38584;49.426;8.396;2024-03-06T13:23:11;21.60;;;11.88;;
52686;SDS011;38584;49.426;8.396;2024-03-06T13:25:36;24.92;;;12.43;;
52686;SDS011;38584;49.426;8.396;2024-03-06T13:28:05;23.60;;;13.25;;
52686;SDS011;38584;49.426;8.396;2024-03-06T13:30:30;23.52;;;13.52;;
52686;SDS011;38584;49.426;8.396;2024-03-06T13:32:56;24.48;;;13.02;;
52686;SDS011;38584;49.426;8.396;2024-03-06T13:35:21;24.38;;;13.38;;
52686;SDS011;38584;49.426;8.396;2024-03-06T13:37:47;24.95;;;13.32;;
52686;SDS011;38584;49.426;8.396;2024-03-06T13:40:14;25.25;;;13.65;;
52686;SDS011;38584;49.426;8.396;2024-03-06T13:42:39;23.98;;;13.43;;
52686;SDS011;38584;49.426;8.396;2024-03-06T13:45:05;32.30;;;15.15;;
52686;SDS011;38584;49.426;8.396;2024-03-06T13:47:40;26.80;;;15.98;;
52686;SDS011;38584;49.426;8.396;2024-03-06T13:50:13;32.15;;;16.35;;
52686;SDS011;38584;49.426;8.396;2024-03-06T13:52:41;25.37;;;15.10;;
52686;SDS011;38584;49.426;8.396;2024-03-06T13:55:06;26.42;;;14.93;;
52686;SDS011;38584;49.426;8.396;2024-03-06T13:57:33;25.67;;;14.55;;
52686;SDS011;38584;49.426;8.396;2024-03-06T14:00:00;24.83;;;14.85;;
52686;SDS011;38584;49.426;8.396;2024-03-06T14:02:33;25.30;;;14.93;;
52686;SDS011;38584;49.426;8.396;2024-03-06T14:04:58;23.55;;;14.70;;
52686;SDS011;38584;49.426;8.396;2024-03-06T14:07:24;26.42;;;16.30;;
52686;SDS011;38584;49.426;8.396;2024-03-06T14:09:50;28.92;;;16.33;;
52686;SDS011;38584;49.426;8.396;2024-03-06T14:12:15;28.42;;;16.35;;
52686;SDS011;38584;49.426;8.396;2024-03-06T14:14:41;29.88;;;17.05;;
52686;SDS011;38584;49.426;8.396;2024-03-06T14:17:09;32.38;;;17.88;;
52686;SDS011;38584;49.426;8.396;2024-03-06T14:19:35;28.08;;;16.58;;
52686;SDS011;38584;49.426;8.396;2024-03-06T14:22:00;29.30;;;16.00;;
52686;SDS011;38584;49.426;8.396;2024-03-06T14:24:26;28.15;;;15.63;;
52686;SDS011;38584;49.426;8.396;2024-03-06T14:26:51;27.73;;;14.90;;
52686;SDS011;38584;49.426;8.396;2024-03-06T14:29:16;25.13;;;15.93;;
52686;SDS011;38584;49.426;8.396;2024-03-06T14:31:42;28.17;;;15.55;;
52686;SDS011;38584;49.426;8.396;2024-03-06T14:34:10;26.35;;;15.20;;
52686;SDS011;38584;49.426;8.396;2024-03-06T14:36:35;27.80;;;15.63;;
52686;SDS011;38584;49.426;8.396;2024-03-06T14:39:01;27.33;;;16.17;;
52686;SDS011;38584;49.426;8.396;2024-03-06T14:41:26;29.08;;;16.98;;
52686;SDS011;38584;49.426;8.396;2024-03-06T14:43:52;29.05;;;16.58;;